Have a Safe July 4th! 

Flight Track Log - Related Links

Times and Time Zones

All times are in EDT time to prevent confusion due to time zone crossing. See the EJA695 flight status page for this flight to view local times or setup timezone preferences in your user account.

Time Position Orientation Groundspeed Altitude Reporting Facility
EDT Latitude Longitude Course Direction KTS MPH feet Rate Location/Type
Sun 10:29:11 AM 41.0167 -72.2833 298° West 262 302 4,400  Level New York TRACON
Sun 10:30:05 AM 41.0500 -72.3667 298° West 249 287 6,700 1,300 Climbing New York TRACON
Sun 10:31:11 AM 41.0500 -72.4667 270° West 257 296 7,000 286 Climbing New York TRACON
Sun 10:32:11 AM 41.0833 -72.5500 298° West 239 275 7,300 1,368 Climbing New York TRACON
Sun 10:33:05 AM 41.1000 -72.6333 285° West 263 303 9,600 1,421 Climbing New York TRACON
Sun 10:34:05 AM 41.1333 -72.7167 298° West 293 337 10,000 200 Climbing New York TRACON
Sun 10:35:05 AM 41.1500 -72.8333 281° West 316 364 10,000  Level New York TRACON
Sun 10:36:05 AM 41.1667 -72.9500 281° West 321 369 10,000 50 Level New York TRACON
Sun 10:37:05 AM 41.1833 -73.0667 281° West 327 376 10,100 865 Climbing New York TRACON
Sun 10:37:56 AM 41.2417 -73.1358 318° Northwest 345 397 11,600 1,838 Climbing Boston Center
Sun 10:38:56 AM 41.3142 -73.1917 330° Northwest 337 388 13,500 2,050 Climbing Boston Center
Sun 10:39:56 AM 41.4033 -73.2592 330° Northwest 337 388 15,700 2,000 Climbing Boston Center
Sun 10:40:56 AM 41.4867 -73.2769 351° North 332 382 17,500 1,800 Climbing Boston Center
Sun 10:41:56 AM 41.5706 -73.2031 33° Northeast 324 373 19,300 1,900 Climbing Boston Center
Sun 10:42:56 AM 41.6625 -73.1486 24° Northeast 343 395 21,300 1,350 Climbing Boston Center
Sun 10:43:56 AM 41.7644 -73.1664 353° North 343 395 22,000 350 Climbing Boston Center
Sun 10:44:56 AM 41.8747 -73.1844 353° North 374 430 22,000  Level Boston Center
Sun 10:45:56 AM 41.9872 -73.1997 354° North 390 449 22,000  Level Boston Center
Sun 10:46:56 AM 42.1017 -73.2153 354° North 404 465 22,000  Level Boston Center
Sun 10:47:56 AM 42.2164 -73.2333 353° North 409 471 22,000  Level Boston Center
Sun 10:48:56 AM 42.3414 -73.2378 358° North 409 471 22,000  Level Boston Center
Sun 10:49:56 AM 42.4494 -73.2589 352° North 403 464 22,000 -700 Level Boston Center
Sun 10:50:56 AM 42.5600 -73.2744 354° North 403 464 20,600 -1,000 Descending Boston Center
Sun 10:51:56 AM 42.6369 -73.2953 349° North 403 464 20,000 -300 Descending Boston Center
Sun 10:52:56 AM 42.7681 -73.3139 354° North 403 464 20,000  Level Boston Center
Sun 10:53:56 AM 42.8742 -73.3297 354° North 396 456 20,000  Level Boston Center
Sun 10:54:56 AM 42.9844 -73.3483 353° North 396 456 20,000  Level Boston Center
Sun 10:55:56 AM 43.0883 -73.4011 340° North 377 434 20,000  Level Boston Center
Sun 10:56:56 AM 43.1753 -73.4564 335° Northwest 372 428 20,000  Level Boston Center
Sun 10:57:56 AM 43.2728 -73.5150 336° Northwest 372 428 20,000  Level Boston Center
Sun 10:58:56 AM 43.3661 -73.5711 336° Northwest 377 434 20,000 -500 Level Boston Center
Sun 10:59:56 AM 43.4611 -73.6300 336° Northwest 377 434 19,000 -2,200 Descending Boston Center
Sun 11:00:56 AM 43.5483 -73.6833 336° Northwest 365 420 15,600 -3,400 Descending Boston Center
Sun 11:01:56 AM 43.6372 -73.7367 337° Northwest 353 406 12,200 -3,350 Descending Boston Center
Sun 11:02:56 AM 43.7261 -73.7933 335° Northwest 335 386 8,900 -2,100 Descending Boston Center
Sun 11:03:56 AM 43.7903 -73.8350 335° Northwest 293 337 8,000 -450 Descending Boston Center
Sun 11:04:56 AM 43.8394 -73.8967 318° Northwest 254 292 8,000  Level Boston Center
Sun 11:05:56 AM 43.8844 -73.9639 313° West 236 272 8,000  Level Boston Center
Sun 11:06:56 AM 43.9294 -74.0286 314° West 229 264 8,000 -200 Level Boston Center
Sun 11:07:56 AM 43.9703 -74.0931 311° West 229 264 7,600 -250 Descending Boston Center
Sun 11:08:56 AM 44.0192 -74.1667 313° West 234 269 7,500 -50 Descending Boston Center
Sun 11:09:56 AM 44.0639 -74.2314 314° West 234 269 7,500 -350 Level Boston Center
Sun 11:10:56 AM 44.1069 -74.2878 317° Northwest 227 261 6,800 -350 Descending Boston Center
Sun 11:11:56 AM 44.1478 -74.3353 320° Northwest 210 242 6,800 -600 Level Boston Center
Sun 11:12:56 AM 44.1928 -74.3800 325° Northwest 205 236 5,600 -1,200 Descending Boston Center
Sun 11:13:56 AM 44.2392 -74.3497 25° Northeast 167 192 4,400 -950 Descending Boston Center
Sun 11:14:56 AM 44.2731 -74.3131 38° Northeast 155 178 3,700 -700 Descending Boston Center

Login

Don't have an account? Register now (free) for customized features, flight alerts, and more!